createdAt,value
2022-09-16T00:00:55.970Z,12.20
2022-09-16T00:03:23.858Z,12.20
2022-09-16T00:05:53.148Z,12.20
2022-09-16T00:08:21.792Z,12.20
2022-09-16T00:10:50.146Z,12.20
2022-09-16T00:13:18.155Z,12.20
2022-09-16T00:15:48.910Z,12.20
2022-09-16T00:18:16.802Z,12.10
2022-09-16T00:20:46.308Z,12.10
2022-09-16T00:23:14.121Z,12.10
2022-09-16T00:25:42.032Z,12.00
2022-09-16T00:28:09.894Z,12.10
2022-09-16T00:30:37.830Z,12.00
2022-09-16T00:33:07.066Z,12.00
2022-09-16T00:35:34.798Z,12.00
2022-09-16T00:38:02.513Z,11.90
2022-09-16T00:40:30.253Z,11.90
2022-09-16T00:43:00.034Z,11.90
2022-09-16T00:45:31.513Z,11.90
2022-09-16T00:48:02.586Z,11.90
2022-09-16T00:50:38.306Z,11.90
2022-09-16T00:53:08.282Z,11.90
2022-09-16T00:55:39.278Z,12.00
2022-09-16T00:58:12.533Z,12.00
2022-09-16T01:00:40.979Z,11.90
2022-09-16T01:03:08.899Z,11.80
2022-09-16T01:05:39.387Z,11.80
2022-09-16T01:08:07.621Z,11.80
2022-09-16T01:10:35.318Z,11.90
2022-09-16T01:13:06.017Z,12.00
2022-09-16T01:15:40.993Z,12.00
2022-09-16T01:18:19.466Z,12.00
2022-09-16T01:21:10.248Z,12.00
2022-09-16T01:24:15.098Z,12.00
2022-09-16T01:27:20.388Z,12.00
2022-09-16T01:30:24.342Z,12.00
2022-09-16T01:33:04.621Z,11.90
2022-09-16T01:36:03.192Z,11.90
2022-09-16T01:38:46.111Z,12.00
2022-09-16T01:41:21.553Z,12.00
2022-09-16T01:43:57.684Z,12.00
2022-09-16T01:46:32.878Z,12.00
2022-09-16T01:49:08.839Z,12.00
2022-09-16T01:51:45.068Z,11.90
2022-09-16T01:54:19.942Z,11.90
2022-09-16T01:56:54.866Z,11.90
2022-09-16T01:59:28.317Z,11.90
2022-09-16T02:02:01.987Z,11.90
2022-09-16T02:04:37.670Z,11.80
2022-09-16T02:07:10.297Z,11.80
2022-09-16T02:09:42.361Z,11.80
2022-09-16T02:12:14.134Z,11.80
2022-09-16T02:14:44.790Z,11.80
2022-09-16T02:17:15.372Z,11.70
2022-09-16T02:19:48.876Z,11.80
2022-09-16T02:22:19.736Z,11.80
2022-09-16T02:24:49.331Z,11.80
2022-09-16T02:27:21.428Z,11.80
2022-09-16T02:29:54.601Z,11.80
2022-09-16T02:32:26.922Z,11.90
2022-09-16T02:34:57.691Z,11.80
2022-09-16T02:37:30.461Z,11.80
2022-09-16T02:40:05.755Z,11.80
2022-09-16T02:42:34.233Z,11.80
2022-09-16T02:45:03.232Z,11.80
2022-09-16T02:47:36.994Z,11.80
2022-09-16T02:50:12.930Z,11.80
2022-09-16T02:52:45.600Z,11.80
2022-09-16T02:55:20.163Z,11.70
2022-09-16T02:57:48.078Z,11.70
2022-09-16T03:00:15.899Z,11.70
2022-09-16T03:02:43.987Z,11.70
2022-09-16T03:05:13.344Z,11.70
2022-09-16T03:07:42.233Z,11.70
2022-09-16T03:10:12.762Z,11.80
2022-09-16T03:12:52.115Z,11.70
2022-09-16T03:15:38.084Z,11.70
2022-09-16T03:18:23.690Z,11.70
2022-09-16T03:21:01.647Z,11.70
2022-09-16T03:23:44.693Z,11.70
2022-09-16T03:26:19.685Z,11.70
2022-09-16T03:28:55.839Z,11.70
2022-09-16T03:31:31.059Z,11.70
2022-09-16T03:34:05.492Z,11.70
2022-09-16T03:36:36.888Z,11.60
2022-09-16T03:39:06.069Z,11.70
2022-09-16T03:41:36.436Z,11.70
2022-09-16T03:44:04.592Z,11.70
2022-09-16T03:46:32.600Z,11.70
2022-09-16T03:49:01.080Z,11.70
2022-09-16T03:51:28.955Z,11.60
2022-09-16T03:53:58.034Z,11.60
2022-09-16T03:56:26.285Z,11.60
2022-09-16T03:58:54.626Z,11.50
2022-09-16T04:01:22.470Z,11.50
2022-09-16T04:03:50.174Z,11.50
2022-09-16T04:06:18.250Z,11.50
2022-09-16T04:08:46.117Z,11.50
2022-09-16T04:11:15.186Z,11.40
2022-09-16T04:13:43.169Z,11.40
2022-09-16T04:16:10.974Z,11.50
2022-09-16T04:18:38.836Z,11.50
2022-09-16T04:21:06.804Z,11.50
2022-09-16T04:23:34.480Z,11.50
2022-09-16T04:26:03.899Z,11.40
2022-09-16T04:28:34.030Z,11.40
2022-09-16T04:31:02.920Z,11.50
2022-09-16T04:33:31.746Z,11.40
2022-09-16T04:36:06.694Z,11.40
2022-09-16T04:38:34.577Z,11.50
2022-09-16T04:41:03.660Z,11.50
2022-09-16T04:43:33.034Z,11.40
2022-09-16T04:46:00.980Z,11.40
2022-09-16T04:48:30.322Z,11.40
2022-09-16T04:51:04.046Z,11.40
2022-09-16T04:53:32.326Z,11.30
2022-09-16T04:56:08.502Z,11.40
2022-09-16T04:58:38.107Z,11.40
2022-09-16T05:01:07.972Z,11.40
2022-09-16T05:03:35.829Z,11.40
2022-09-16T05:06:08.840Z,11.30
2022-09-16T05:08:36.612Z,11.30
2022-09-16T05:11:06.440Z,11.30
2022-09-16T05:13:34.590Z,11.30
2022-09-16T05:16:05.561Z,11.30
2022-09-16T05:18:33.367Z,11.30
2022-09-16T05:21:01.977Z,11.30
2022-09-16T05:23:30.035Z,11.30
2022-09-16T05:26:03.124Z,11.30
2022-09-16T05:28:31.016Z,11.30
2022-09-16T05:31:13.946Z,11.20
2022-09-16T05:33:43.653Z,11.20
2022-09-16T05:36:14.496Z,11.20
2022-09-16T05:38:54.318Z,11.30
2022-09-16T05:41:30.598Z,11.40
2022-09-16T05:43:59.562Z,11.40
2022-09-16T05:46:29.731Z,11.40
2022-09-16T05:48:57.725Z,11.40
2022-09-16T05:51:26.229Z,11.40
2022-09-16T05:53:55.198Z,11.30
2022-09-16T05:56:25.677Z,11.40
2022-09-16T05:58:54.099Z,11.40
2022-09-16T06:01:24.395Z,11.40
2022-09-16T06:03:54.883Z,11.50
2022-09-16T06:06:25.586Z,11.50
2022-09-16T06:08:54.638Z,11.60
2022-09-16T06:11:23.054Z,11.60
2022-09-16T06:13:55.634Z,11.60
2022-09-16T06:16:25.683Z,11.70
2022-09-16T06:18:55.466Z,11.70
2022-09-16T06:21:24.134Z,11.60
2022-09-16T06:23:52.014Z,11.70
2022-09-16T06:26:22.068Z,11.70
2022-09-16T06:28:50.802Z,11.80
2022-09-16T06:31:20.380Z,11.90
2022-09-16T06:33:50.308Z,11.80
2022-09-16T06:36:22.623Z,11.90
2022-09-16T06:38:51.120Z,11.90
2022-09-16T06:41:20.782Z,11.90
2022-09-16T06:43:51.130Z,11.90
2022-09-16T06:46:22.536Z,11.90
2022-09-16T06:48:52.180Z,12.00
2022-09-16T06:51:24.092Z,12.00
2022-09-16T06:53:53.185Z,12.10
2022-09-16T06:56:22.178Z,12.10
2022-09-16T06:58:52.935Z,12.10
2022-09-16T07:01:24.171Z,12.20
2022-09-16T07:03:53.516Z,12.30
2022-09-16T07:06:33.378Z,12.30
2022-09-16T07:09:12.144Z,12.40
2022-09-16T07:11:40.642Z,12.40
2022-09-16T07:14:09.497Z,12.50
2022-09-16T07:16:37.267Z,12.50
2022-09-16T07:19:05.268Z,12.60
2022-09-16T07:21:34.406Z,12.70
2022-09-16T07:24:03.596Z,12.80
2022-09-16T07:26:32.793Z,12.70
2022-09-16T07:29:02.238Z,12.80
2022-09-16T07:31:31.894Z,12.90
2022-09-16T07:34:04.034Z,13.00
2022-09-16T07:36:36.114Z,13.00
2022-09-16T07:39:04.776Z,13.00
2022-09-16T07:41:35.212Z,13.20
2022-09-16T07:44:04.716Z,13.30
2022-09-16T07:46:34.176Z,13.30
2022-09-16T07:49:03.656Z,13.50
2022-09-16T07:51:32.410Z,13.60
2022-09-16T07:54:04.173Z,13.90
2022-09-16T07:56:35.279Z,14.10
2022-09-16T07:59:05.065Z,14.10
2022-09-16T08:01:33.189Z,13.90
2022-09-16T08:04:01.738Z,13.70
2022-09-16T08:06:31.247Z,13.80
2022-09-16T08:09:10.422Z,14.00
2022-09-16T08:11:50.124Z,14.00
2022-09-16T08:14:17.841Z,14.00
2022-09-16T08:16:46.576Z,14.20
2022-09-16T08:19:14.442Z,14.30
2022-09-16T08:21:42.260Z,14.40
2022-09-16T08:24:11.736Z,14.80
2022-09-16T08:26:40.310Z,14.90
2022-09-16T08:29:09.737Z,15.00
2022-09-16T08:31:38.405Z,15.00
2022-09-16T08:34:06.729Z,15.20
2022-09-16T08:36:34.956Z,15.20
2022-09-16T08:39:02.951Z,15.20
2022-09-16T08:41:43.410Z,15.10
2022-09-16T08:44:19.823Z,15.00
2022-09-16T08:46:53.562Z,14.90
2022-09-16T08:49:31.589Z,14.90
2022-09-16T08:52:01.239Z,14.50
2022-09-16T08:54:33.425Z,14.40
2022-09-16T08:57:05.874Z,14.50
2022-09-16T08:59:37.539Z,14.50
2022-09-16T09:02:34.773Z,14.50
2022-09-16T09:05:04.375Z,14.60
2022-09-16T09:07:43.286Z,14.80
2022-09-16T09:10:19.215Z,14.90
2022-09-16T09:12:53.657Z,14.90
2022-09-16T09:15:33.888Z,14.80
2022-09-16T09:18:28.927Z,14.80
2022-09-16T09:21:09.694Z,14.70
2022-09-16T09:24:04.019Z,14.80
2022-09-16T09:26:40.021Z,15.00
2022-09-16T09:29:34.303Z,14.90
2022-09-16T09:32:13.971Z,15.20
2022-09-16T09:34:56.911Z,15.30
2022-09-16T09:37:38.864Z,15.50
2022-09-16T09:40:14.441Z,15.60
2022-09-16T09:42:48.273Z,15.20
2022-09-16T09:45:22.184Z,15.00
2022-09-16T09:47:56.360Z,15.00
2022-09-16T09:50:29.487Z,15.20
2022-09-16T09:53:04.435Z,15.20
2022-09-16T09:55:34.571Z,15.30
2022-09-16T09:58:20.482Z,15.30
2022-09-16T10:00:52.573Z,15.10
2022-09-16T10:03:20.541Z,15.20
2022-09-16T10:05:49.128Z,15.30
2022-09-16T10:08:24.652Z,15.50
2022-09-16T10:10:54.306Z,15.60
2022-09-16T10:13:24.110Z,15.50
2022-09-16T10:15:55.825Z,15.60
2022-09-16T10:18:33.353Z,15.40
2022-09-16T10:21:05.319Z,15.30
2022-09-16T10:23:33.914Z,15.20
2022-09-16T10:26:18.333Z,15.00
2022-09-16T10:28:59.216Z,15.00
2022-09-16T10:31:34.448Z,15.00
2022-09-16T10:34:04.675Z,15.00
2022-09-16T10:36:35.990Z,15.00
2022-09-16T10:39:06.258Z,14.90
2022-09-16T10:41:41.429Z,15.00
2022-09-16T10:44:17.511Z,15.20
2022-09-16T10:46:55.167Z,15.50
2022-09-16T10:49:29.339Z,15.70
2022-09-16T10:52:09.187Z,15.80
2022-09-16T10:54:36.980Z,15.80
2022-09-16T10:57:04.844Z,15.90
2022-09-16T10:59:32.689Z,16.00
2022-09-16T11:02:14.748Z,16.10
2022-09-16T11:05:00.249Z,16.30
2022-09-16T11:07:41.226Z,16.30
2022-09-16T11:10:17.995Z,16.40
2022-09-16T11:13:01.517Z,16.20
2022-09-16T11:15:40.923Z,15.90
2022-09-16T11:18:22.774Z,16.00
2022-09-16T11:21:01.962Z,15.90
2022-09-16T11:23:43.796Z,15.90
2022-09-16T11:26:20.147Z,15.80
2022-09-16T11:29:04.309Z,15.40
2022-09-16T11:31:41.554Z,14.80
2022-09-16T11:34:21.220Z,14.50
2022-09-16T11:36:56.940Z,14.50
2022-09-16T11:39:45.225Z,14.40
2022-09-16T11:42:20.050Z,14.60
2022-09-16T11:44:53.833Z,14.70
2022-09-16T11:47:43.091Z,14.80
2022-09-16T11:50:29.396Z,14.80
2022-09-16T11:53:35.935Z,14.70
2022-09-16T11:56:09.705Z,14.60
2022-09-16T11:58:44.146Z,14.90
2022-09-16T12:01:29.224Z,15.00
2022-09-16T12:04:01.656Z,15.40
2022-09-16T12:06:39.256Z,15.70
2022-09-16T12:09:13.155Z,15.70
2022-09-16T12:11:46.547Z,15.60
2022-09-16T12:14:17.852Z,15.70
2022-09-16T12:16:49.724Z,15.80
2022-09-16T12:19:22.248Z,15.90
2022-09-16T12:21:57.906Z,16.20
2022-09-16T12:24:33.907Z,16.40
2022-09-16T12:27:07.489Z,16.30
2022-09-16T12:29:44.255Z,16.20
2022-09-16T12:32:16.679Z,16.10
2022-09-16T12:34:49.342Z,16.10
2022-09-16T12:37:29.464Z,16.30
2022-09-16T12:39:57.350Z,16.00
2022-09-16T12:43:07.841Z,15.60
2022-09-16T12:46:08.446Z,15.20
2022-09-16T12:49:02.428Z,15.20
2022-09-16T12:51:58.532Z,15.00
2022-09-16T12:55:06.584Z,15.00
2022-09-16T12:57:46.230Z,15.00
2022-09-16T13:00:19.988Z,14.90
2022-09-16T13:02:51.839Z,15.10
2022-09-16T13:05:28.184Z,14.90
2022-09-16T13:08:01.876Z,14.90
2022-09-16T13:10:54.564Z,14.70
2022-09-16T13:13:33.151Z,14.50
2022-09-16T13:16:03.927Z,14.20
2022-09-16T13:18:44.598Z,14.10
2022-09-16T13:21:24.934Z,14.00
2022-09-16T13:24:01.607Z,13.80
2022-09-16T13:26:41.623Z,13.60
2022-09-16T13:29:43.897Z,13.60
2022-09-16T13:32:29.422Z,13.80
2022-09-16T13:35:05.660Z,14.10
2022-09-16T13:37:33.616Z,14.30
2022-09-16T13:40:16.984Z,14.40
2022-09-16T13:42:46.290Z,14.50
2022-09-16T13:45:32.595Z,14.40
2022-09-16T13:48:06.314Z,14.40
2022-09-16T13:50:36.135Z,14.40
2022-09-16T13:53:11.102Z,14.40
2022-09-16T13:55:42.017Z,14.50
2022-09-16T13:58:22.591Z,14.50
2022-09-16T14:01:02.231Z,14.40
2022-09-16T14:03:45.623Z,14.30
2022-09-16T14:06:55.225Z,14.10
2022-09-16T14:09:36.094Z,14.00
2022-09-16T14:12:13.355Z,13.80
2022-09-16T14:14:47.357Z,13.80
2022-09-16T14:17:20.264Z,13.90
2022-09-16T14:19:52.398Z,14.00
2022-09-16T14:22:23.013Z,13.90
2022-09-16T14:25:00.655Z,13.80
2022-09-16T14:27:39.097Z,13.70
2022-09-16T14:30:16.778Z,13.60
2022-09-16T14:32:46.120Z,13.50
2022-09-16T14:35:19.440Z,13.50
2022-09-16T14:37:50.607Z,13.30
2022-09-16T14:40:21.312Z,13.20
2022-09-16T14:42:52.264Z,12.90
2022-09-16T14:45:22.258Z,12.90
2022-09-16T14:47:53.022Z,12.80
2022-09-16T14:50:23.076Z,12.80
2022-09-16T14:52:55.910Z,12.70
2022-09-16T14:55:26.637Z,12.70
2022-09-16T14:57:54.485Z,12.70
2022-09-16T15:00:24.814Z,12.70
2022-09-16T15:02:57.385Z,12.70
2022-09-16T15:05:30.291Z,12.60
2022-09-16T15:08:15.996Z,12.60
2022-09-16T15:10:55.254Z,12.60
2022-09-16T15:13:26.572Z,12.50
2022-09-16T15:15:58.574Z,12.40
2022-09-16T15:18:29.450Z,12.40
2022-09-16T15:21:04.525Z,12.50
2022-09-16T15:23:34.136Z,12.40
2022-09-16T15:26:17.678Z,12.40
2022-09-16T15:28:54.288Z,12.50
2022-09-16T15:31:36.732Z,12.50
2022-09-16T15:34:06.824Z,12.40
2022-09-16T15:36:40.093Z,12.40
2022-09-16T15:39:23.403Z,12.40
2022-09-16T15:41:52.457Z,12.40
2022-09-16T15:44:26.054Z,12.50
2022-09-16T15:46:55.297Z,12.50
2022-09-16T15:49:25.559Z,12.50
2022-09-16T15:51:53.834Z,12.60
2022-09-16T15:54:26.578Z,12.60
2022-09-16T15:57:02.014Z,12.50
2022-09-16T15:59:37.867Z,12.60
2022-09-16T16:02:23.547Z,12.70
2022-09-16T16:04:51.820Z,12.70
2022-09-16T16:07:39.974Z,12.70
2022-09-16T16:10:17.019Z,12.80
2022-09-16T16:12:47.814Z,12.90
2022-09-16T16:15:18.514Z,13.00
2022-09-16T16:17:49.419Z,13.00
2022-09-16T16:20:18.850Z,13.00
2022-09-16T16:22:46.758Z,13.10
2022-09-16T16:25:14.966Z,13.20
2022-09-16T16:27:43.027Z,13.20
2022-09-16T16:30:11.958Z,13.20
2022-09-16T16:32:39.935Z,13.30
2022-09-16T16:35:10.007Z,13.40
2022-09-16T16:37:46.376Z,13.40
2022-09-16T16:40:15.717Z,13.40
2022-09-16T16:42:44.111Z,13.30
2022-09-16T16:45:12.648Z,13.40
2022-09-16T16:47:40.420Z,13.40
2022-09-16T16:50:10.229Z,13.40
2022-09-16T16:52:38.344Z,13.50
2022-09-16T16:55:07.141Z,13.50
2022-09-16T16:57:35.048Z,13.50
2022-09-16T17:00:03.572Z,13.60
2022-09-16T17:02:31.363Z,13.60
2022-09-16T17:04:59.473Z,13.60
2022-09-16T17:07:28.970Z,13.60
2022-09-16T17:09:58.497Z,13.60
2022-09-16T17:12:26.525Z,13.60
2022-09-16T17:14:54.326Z,13.60
2022-09-16T17:17:22.161Z,13.70
2022-09-16T17:19:49.955Z,13.70
2022-09-16T17:22:17.659Z,13.60
2022-09-16T17:24:46.943Z,13.70
2022-09-16T17:27:19.554Z,13.70
2022-09-16T17:29:47.490Z,13.80
2022-09-16T17:32:16.058Z,13.80
2022-09-16T17:34:43.857Z,13.90
2022-09-16T17:37:13.500Z,14.00
2022-09-16T17:39:41.360Z,14.00
2022-09-16T17:42:10.380Z,14.00
2022-09-16T17:44:38.515Z,14.00
2022-09-16T17:47:06.665Z,14.10
2022-09-16T17:49:34.476Z,14.10
2022-09-16T17:52:02.613Z,14.10
2022-09-16T17:54:30.347Z,14.10
2022-09-16T17:56:58.033Z,14.10
2022-09-16T17:59:27.354Z,14.20
2022-09-16T18:01:55.030Z,14.20
2022-09-16T18:04:22.890Z,14.10
2022-09-16T18:06:51.095Z,14.20
2022-09-16T18:09:18.926Z,14.10
2022-09-16T18:11:46.634Z,14.10
2022-09-16T18:14:17.287Z,14.10
2022-09-16T18:16:49.273Z,14.20
2022-09-16T18:19:16.996Z,14.20
2022-09-16T18:21:44.741Z,14.10
2022-09-16T18:24:13.360Z,14.20
2022-09-16T18:26:41.999Z,14.10
2022-09-16T18:29:11.993Z,14.00
2022-09-16T18:31:41.432Z,14.00
2022-09-16T18:34:11.526Z,14.10
2022-09-16T18:36:39.800Z,14.10
2022-09-16T18:39:11.025Z,14.00
2022-09-16T18:41:40.626Z,14.00
2022-09-16T18:44:13.315Z,14.00
2022-09-16T18:46:41.960Z,14.00
2022-09-16T18:49:13.439Z,14.00
2022-09-16T18:51:47.219Z,14.10
2022-09-16T18:54:20.259Z,14.00
2022-09-16T18:56:48.016Z,14.00
2022-09-16T18:59:25.211Z,14.00
2022-09-16T19:01:55.056Z,14.00
2022-09-16T19:04:26.141Z,14.00
2022-09-16T19:06:55.306Z,13.90
2022-09-16T19:09:25.195Z,13.90
2022-09-16T19:11:54.226Z,14.00
2022-09-16T19:14:24.701Z,13.90
2022-09-16T19:16:53.063Z,13.90
2022-09-16T19:19:21.699Z,13.90
2022-09-16T19:21:50.878Z,13.90
2022-09-16T19:24:20.383Z,13.80
2022-09-16T19:26:49.523Z,13.80
2022-09-16T19:29:18.212Z,13.90
2022-09-16T19:31:47.900Z,13.90
2022-09-16T19:34:16.622Z,13.90
2022-09-16T19:36:44.745Z,13.90
2022-09-16T19:39:14.521Z,13.90
2022-09-16T19:41:42.945Z,13.90
2022-09-16T19:44:13.614Z,13.90
2022-09-16T19:46:42.590Z,13.90
2022-09-16T19:49:14.456Z,13.90
2022-09-16T19:51:42.902Z,14.00
2022-09-16T19:54:10.944Z,14.00
2022-09-16T19:56:40.066Z,14.10
2022-09-16T19:59:08.199Z,14.00
2022-09-16T20:01:37.183Z,13.90
2022-09-16T20:04:07.518Z,14.00
2022-09-16T20:06:37.461Z,13.90
2022-09-16T20:09:08.044Z,13.90
2022-09-16T20:11:38.026Z,13.90
2022-09-16T20:14:09.039Z,13.90
2022-09-16T20:16:38.926Z,13.90
2022-09-16T20:19:08.084Z,13.90
2022-09-16T20:21:35.874Z,13.80
2022-09-16T20:24:05.488Z,13.80
2022-09-16T20:26:34.173Z,13.70
2022-09-16T20:29:02.822Z,13.70
2022-09-16T20:31:35.645Z,13.60
2022-09-16T20:34:03.989Z,13.60
2022-09-16T20:36:33.256Z,13.70
2022-09-16T20:39:01.446Z,13.60
2022-09-16T20:41:30.858Z,13.60
2022-09-16T20:44:00.005Z,13.60
2022-09-16T20:46:30.338Z,13.60
2022-09-16T20:49:01.548Z,13.60
2022-09-16T20:51:32.133Z,13.60
2022-09-16T20:54:07.030Z,13.60
2022-09-16T20:56:39.105Z,13.60
2022-09-16T20:59:08.324Z,13.50
2022-09-16T21:01:37.636Z,13.50
2022-09-16T21:04:08.602Z,13.50
2022-09-16T21:06:37.291Z,13.50
2022-09-16T21:09:07.041Z,13.50
2022-09-16T21:11:35.397Z,13.50
2022-09-16T21:14:06.303Z,13.40
2022-09-16T21:16:35.903Z,13.40
2022-09-16T21:19:09.073Z,13.30
2022-09-16T21:21:38.881Z,13.30
2022-09-16T21:24:08.437Z,13.30
2022-09-16T21:26:37.655Z,13.30
2022-09-16T21:29:08.445Z,13.30
2022-09-16T21:31:37.882Z,13.20
2022-09-16T21:34:08.170Z,13.10
2022-09-16T21:36:37.517Z,13.10
2022-09-16T21:39:05.714Z,13.10
2022-09-16T21:41:33.731Z,13.20
2022-09-16T21:44:03.708Z,13.20
2022-09-16T21:46:33.494Z,13.20
2022-09-16T21:49:02.893Z,13.10
2022-09-16T21:51:35.226Z,13.10
2022-09-16T21:54:03.772Z,13.10
2022-09-16T21:56:32.075Z,13.10
2022-09-16T21:59:00.752Z,13.00
2022-09-16T22:01:31.415Z,13.00
2022-09-16T22:04:02.385Z,13.00
2022-09-16T22:06:32.163Z,12.90
2022-09-16T22:09:01.869Z,12.90
2022-09-16T22:11:32.502Z,12.90
2022-09-16T22:14:01.329Z,12.90
2022-09-16T22:16:32.057Z,12.80
2022-09-16T22:19:02.266Z,12.80
2022-09-16T22:21:33.882Z,12.80
2022-09-16T22:24:02.998Z,12.80
2022-09-16T22:26:31.384Z,12.80
2022-09-16T22:29:00.562Z,12.80
2022-09-16T22:31:30.350Z,12.70
2022-09-16T22:34:01.152Z,12.60
2022-09-16T22:36:30.266Z,12.60
2022-09-16T22:39:01.681Z,12.60
2022-09-16T22:41:30.591Z,12.60
2022-09-16T22:43:58.612Z,12.60
2022-09-16T22:46:28.260Z,12.60
2022-09-16T22:48:57.600Z,12.50
2022-09-16T22:51:25.698Z,12.50
2022-09-16T22:53:54.851Z,12.40
2022-09-16T22:56:26.888Z,12.40
2022-09-16T22:58:55.993Z,12.40
2022-09-16T23:01:27.478Z,12.40
2022-09-16T23:03:58.058Z,12.30
2022-09-16T23:06:27.945Z,12.40
2022-09-16T23:08:55.902Z,12.50
2022-09-16T23:11:28.583Z,12.50
2022-09-16T23:13:57.992Z,12.50
2022-09-16T23:16:27.764Z,12.40
2022-09-16T23:18:57.599Z,12.40
2022-09-16T23:21:26.545Z,12.40
2022-09-16T23:23:57.022Z,12.40
2022-09-16T23:26:28.397Z,12.40
2022-09-16T23:28:57.752Z,12.40
2022-09-16T23:31:27.204Z,12.40
2022-09-16T23:33:55.740Z,12.40
2022-09-16T23:36:25.058Z,12.40
2022-09-16T23:38:53.554Z,12.40
2022-09-16T23:41:23.328Z,12.40
2022-09-16T23:43:52.488Z,12.40
2022-09-16T23:46:22.839Z,12.40
2022-09-16T23:48:51.624Z,12.40
2022-09-16T23:51:23.556Z,12.40
2022-09-16T23:53:55.509Z,12.50
2022-09-16T23:56:23.285Z,12.50
2022-09-16T23:58:52.722Z,12.50
